Terminal Aerodrome Forecast
Issued by NWS Norman, OK

Home | Current Version | Previous Version | Text Only | Print | Product List | Glossary On
Versions: 1 2 3 4 5 6 7 8 9 10 11 12 13 14 15 16 17 18 19 20 21 22 23 24 25 26 27 28 29 30 31 32 33 34 35 36
000
FTUS44 KOUN 211720
TAFOKC
TAF
KOKC 211720Z 2118/2218 16010KT P6SM SCT060 OVC100
     FM212000 15012KT P6SM VCSH OVC060
     FM220000 15010KT 6SM -SHRA BR BKN030
     FM220400 31006KT P6SM SCT010 BKN060
     FM220600 31006KT P6SM OVC015
     FM221500 34021G29KT P6SM OVC025=

USA.gov is the U.S. government's official web portal to all federal, state and local government web resources and services.